sensor_id;sensor_type;location;lat;lon;timestamp;P1;durP1;ratioP1;P2;durP2;ratioP2
68806;SDS011;55800;54.272;18.558;2023-07-29T10:02:58;7.47;;;3.40;;
68806;SDS011;55800;54.272;18.558;2023-07-29T10:05:46;13.60;;;3.33;;
68806;SDS011;55800;54.272;18.558;2023-07-29T10:08:33;7.43;;;2.90;;
68806;SDS011;55800;54.272;18.558;2023-07-29T10:11:22;7.93;;;3.40;;
68806;SDS011;55800;54.272;18.558;2023-07-29T10:14:10;6.60;;;3.37;;
68806;SDS011;55800;54.272;18.558;2023-07-29T10:16:58;7.32;;;4.10;;
68806;SDS011;55800;54.272;18.558;2023-07-29T10:19:47;14.75;;;4.05;;
68806;SDS011;55800;54.272;18.558;2023-07-29T10:25:22;6.05;;;3.83;;
68806;SDS011;55800;54.272;18.558;2023-07-29T10:28:11;7.30;;;3.65;;
68806;SDS011;55800;54.272;18.558;2023-07-29T10:31:00;6.03;;;3.30;;
68806;SDS011;55800;54.272;18.558;2023-07-29T10:33:50;7.95;;;3.05;;
68806;SDS011;55800;54.272;18.558;2023-07-29T10:36:39;5.22;;;2.92;;
68806;SDS011;55800;54.272;18.558;2023-07-29T10:39:28;6.70;;;2.67;;
68806;SDS011;55800;54.272;18.558;2023-07-29T10:42:24;5.15;;;2.90;;
68806;SDS011;55800;54.272;18.558;2023-07-29T10:45:17;4.90;;;2.63;;
68806;SDS011;55800;54.272;18.558;2023-07-29T10:48:06;6.63;;;3.08;;
68806;SDS011;55800;54.272;18.558;2023-07-29T10:51:04;6.78;;;3.35;;
68806;SDS011;55800;54.272;18.558;2023-07-29T10:54:11;7.80;;;3.20;;
68806;SDS011;55800;54.272;18.558;2023-07-29T10:57:12;4.72;;;3.10;;
68806;SDS011;55800;54.272;18.558;2023-07-29T11:00:19;3.75;;;2.65;;
68806;SDS011;55800;54.272;18.558;2023-07-29T11:03:11;5.63;;;3.13;;
68806;SDS011;55800;54.272;18.558;2023-07-29T11:05:59;6.13;;;3.33;;
68806;SDS011;55800;54.272;18.558;2023-07-29T11:08:51;5.18;;;2.28;;
68806;SDS011;55800;54.272;18.558;2023-07-29T11:11:40;5.35;;;2.83;;
68806;SDS011;55800;54.272;18.558;2023-07-29T11:14:26;8.05;;;3.20;;
68806;SDS011;55800;54.272;18.558;2023-07-29T11:17:13;4.43;;;2.92;;
68806;SDS011;55800;54.272;18.558;2023-07-29T11:20:01;4.85;;;2.63;;
68806;SDS011;55800;54.272;18.558;2023-07-29T11:22:48;5.85;;;2.33;;
68806;SDS011;55800;54.272;18.558;2023-07-29T11:25:36;7.13;;;2.38;;
68806;SDS011;55800;54.272;18.558;2023-07-29T11:28:24;4.95;;;2.50;;
68806;SDS011;55800;54.272;18.558;2023-07-29T11:31:12;2.60;;;1.75;;
68806;SDS011;55800;54.272;18.558;2023-07-29T11:33:58;4.93;;;1.85;;
68806;SDS011;55800;54.272;18.558;2023-07-29T11:36:45;4.95;;;2.20;;
68806;SDS011;55800;54.272;18.558;2023-07-29T11:39:32;6.88;;;2.20;;
68806;SDS011;55800;54.272;18.558;2023-07-29T11:42:24;6.13;;;1.92;;
68806;SDS011;55800;54.272;18.558;2023-07-29T11:45:13;6.40;;;2.92;;
68806;SDS011;55800;54.272;18.558;2023-07-29T11:50:46;11.02;;;2.60;;
68806;SDS011;55800;54.272;18.558;2023-07-29T11:53:33;6.80;;;2.38;;
68806;SDS011;55800;54.272;18.558;2023-07-29T11:56:20;4.18;;;2.35;;
68806;SDS011;55800;54.272;18.558;2023-07-29T11:59:07;15.07;;;3.08;;
68806;SDS011;55800;54.272;18.558;2023-07-29T12:01:55;4.75;;;2.58;;
68806;SDS011;55800;54.272;18.558;2023-07-29T12:04:42;6.68;;;3.17;;
68806;SDS011;55800;54.272;18.558;2023-07-29T12:07:30;6.75;;;3.25;;
68806;SDS011;55800;54.272;18.558;2023-07-29T12:10:19;5.78;;;3.15;;
68806;SDS011;55800;54.272;18.558;2023-07-29T12:13:07;5.78;;;2.47;;
68806;SDS011;55800;54.272;18.558;2023-07-29T12:16:00;7.72;;;2.70;;
68806;SDS011;55800;54.272;18.558;2023-07-29T12:18:49;4.47;;;2.40;;
68806;SDS011;55800;54.272;18.558;2023-07-29T12:21:36;4.35;;;2.47;;
68806;SDS011;55800;54.272;18.558;2023-07-29T12:24:23;4.22;;;2.65;;
68806;SDS011;55800;54.272;18.558;2023-07-29T12:27:11;5.63;;;2.40;;
68806;SDS011;55800;54.272;18.558;2023-07-29T12:30:00;5.45;;;2.70;;
68806;SDS011;55800;54.272;18.558;2023-07-29T12:32:49;4.28;;;2.50;;
68806;SDS011;55800;54.272;18.558;2023-07-29T12:35:37;4.25;;;2.40;;
68806;SDS011;55800;54.272;18.558;2023-07-29T12:38:25;4.38;;;2.47;;
68806;SDS011;55800;54.272;18.558;2023-07-29T12:41:12;3.80;;;2.53;;
68806;SDS011;55800;54.272;18.558;2023-07-29T12:43:59;3.38;;;2.22;;
68806;SDS011;55800;54.272;18.558;2023-07-29T12:46:46;14.93;;;2.90;;
68806;SDS011;55800;54.272;18.558;2023-07-29T12:49:33;7.35;;;2.70;;
68806;SDS011;55800;54.272;18.558;2023-07-29T12:52:21;5.18;;;2.42;;
68806;SDS011;55800;54.272;18.558;2023-07-29T12:57:57;6.40;;;2.45;;
68806;SDS011;55800;54.272;18.558;2023-07-29T13:00:44;6.03;;;3.20;;
68806;SDS011;55800;54.272;18.558;2023-07-29T13:03:30;16.38;;;3.33;;
68806;SDS011;55800;54.272;18.558;2023-07-29T13:06:17;15.00;;;3.60;;
68806;SDS011;55800;54.272;18.558;2023-07-29T13:09:05;7.40;;;2.60;;
68806;SDS011;55800;54.272;18.558;2023-07-29T13:14:39;6.75;;;2.10;;
68806;SDS011;55800;54.272;18.558;2023-07-29T13:17:25;4.82;;;1.90;;
68806;SDS011;55800;54.272;18.558;2023-07-29T13:20:12;3.47;;;1.92;;
68806;SDS011;55800;54.272;18.558;2023-07-29T13:22:59;4.13;;;2.28;;
68806;SDS011;55800;54.272;18.558;2023-07-29T13:25:47;8.18;;;2.33;;
68806;SDS011;55800;54.272;18.558;2023-07-29T13:31:20;4.80;;;1.92;;
68806;SDS011;55800;54.272;18.558;2023-07-29T13:34:07;6.80;;;2.72;;
68806;SDS011;55800;54.272;18.558;2023-07-29T13:36:54;3.05;;;2.00;;
68806;SDS011;55800;54.272;18.558;2023-07-29T13:39:41;8.95;;;2.60;;
68806;SDS011;55800;54.272;18.558;2023-07-29T13:42:30;4.65;;;2.17;;
68806;SDS011;55800;54.272;18.558;2023-07-29T13:45:17;2.55;;;1.70;;
68806;SDS011;55800;54.272;18.558;2023-07-29T13:48:04;4.43;;;2.22;;
68806;SDS011;55800;54.272;18.558;2023-07-29T13:50:51;3.55;;;1.88;;
68806;SDS011;55800;54.272;18.558;2023-07-29T13:53:37;3.65;;;2.13;;
68806;SDS011;55800;54.272;18.558;2023-07-29T13:56:27;3.45;;;1.80;;
68806;SDS011;55800;54.272;18.558;2023-07-29T13:59:15;4.18;;;2.10;;
68806;SDS011;55800;54.272;18.558;2023-07-29T14:04:49;3.13;;;1.83;;
68806;SDS011;55800;54.272;18.558;2023-07-29T14:07:36;3.58;;;2.20;;
68806;SDS011;55800;54.272;18.558;2023-07-29T14:10:22;4.07;;;1.98;;
68806;SDS011;55800;54.272;18.558;2023-07-29T14:13:10;3.47;;;1.98;;
68806;SDS011;55800;54.272;18.558;2023-07-29T14:15:58;3.70;;;1.75;;
68806;SDS011;55800;54.272;18.558;2023-07-29T14:18:46;3.08;;;1.70;;
68806;SDS011;55800;54.272;18.558;2023-07-29T14:21:33;2.83;;;1.70;;
68806;SDS011;55800;54.272;18.558;2023-07-29T14:24:20;6.07;;;1.90;;
68806;SDS011;55800;54.272;18.558;2023-07-29T14:27:10;5.13;;;1.95;;
68806;SDS011;55800;54.272;18.558;2023-07-29T14:29:58;9.63;;;2.25;;
68806;SDS011;55800;54.272;18.558;2023-07-29T14:32:46;7.78;;;3.05;;
68806;SDS011;55800;54.272;18.558;2023-07-29T14:35:34;2.80;;;1.40;;
68806;SDS011;55800;54.272;18.558;2023-07-29T14:38:21;3.33;;;2.00;;
68806;SDS011;55800;54.272;18.558;2023-07-29T14:41:08;4.53;;;2.20;;
68806;SDS011;55800;54.272;18.558;2023-07-29T14:43:54;4.10;;;1.55;;
68806;SDS011;55800;54.272;18.558;2023-07-29T14:46:41;3.72;;;1.70;;
68806;SDS011;55800;54.272;18.558;2023-07-29T14:49:29;3.25;;;1.63;;
68806;SDS011;55800;54.272;18.558;2023-07-29T14:52:16;3.17;;;1.67;;
68806;SDS011;55800;54.272;18.558;2023-07-29T14:55:03;2.75;;;1.65;;
68806;SDS011;55800;54.272;18.558;2023-07-29T14:57:51;4.38;;;1.83;;
68806;SDS011;55800;54.272;18.558;2023-07-29T15:00:37;4.65;;;1.80;;
68806;SDS011;55800;54.272;18.558;2023-07-29T15:03:25;5.43;;;1.80;;
68806;SDS011;55800;54.272;18.558;2023-07-29T15:06:13;5.05;;;1.60;;
68806;SDS011;55800;54.272;18.558;2023-07-29T15:08:59;3.22;;;1.77;;
68806;SDS011;55800;54.272;18.558;2023-07-29T15:11:46;3.33;;;2.10;;
68806;SDS011;55800;54.272;18.558;2023-07-29T15:14:33;3.80;;;1.63;;
68806;SDS011;55800;54.272;18.558;2023-07-29T15:17:19;5.90;;;1.48;;
68806;SDS011;55800;54.272;18.558;2023-07-29T15:20:06;5.55;;;1.77;;
68806;SDS011;55800;54.272;18.558;2023-07-29T15:22:55;3.17;;;1.88;;
68806;SDS011;55800;54.272;18.558;2023-07-29T15:25:41;2.70;;;1.58;;
68806;SDS011;55800;54.272;18.558;2023-07-29T15:28:28;3.15;;;1.70;;
68806;SDS011;55800;54.272;18.558;2023-07-29T15:31:15;2.10;;;1.40;;
68806;SDS011;55800;54.272;18.558;2023-07-29T15:34:02;5.50;;;1.90;;
68806;SDS011;55800;54.272;18.558;2023-07-29T15:36:50;2.72;;;1.75;;
68806;SDS011;55800;54.272;18.558;2023-07-29T15:39:38;2.42;;;1.38;;
68806;SDS011;55800;54.272;18.558;2023-07-29T15:42:24;3.55;;;1.67;;
68806;SDS011;55800;54.272;18.558;2023-07-29T15:45:11;2.83;;;1.80;;
68806;SDS011;55800;54.272;18.558;2023-07-29T15:47:58;4.65;;;2.00;;
68806;SDS011;55800;54.272;18.558;2023-07-29T15:50:44;4.47;;;1.73;;
68806;SDS011;55800;54.272;18.558;2023-07-29T15:53:31;4.80;;;1.50;;
68806;SDS011;55800;54.272;18.558;2023-07-29T15:56:20;5.40;;;1.38;;
68806;SDS011;55800;54.272;18.558;2023-07-29T15:59:07;5.68;;;1.60;;
68806;SDS011;55800;54.272;18.558;2023-07-29T16:01:53;3.03;;;1.87;;
68806;SDS011;55800;54.272;18.558;2023-07-29T16:04:40;3.90;;;2.23;;
68806;SDS011;55800;54.272;18.558;2023-07-29T16:10:14;5.87;;;3.40;;
68806;SDS011;55800;54.272;18.558;2023-07-29T16:13:03;9.45;;;6.50;;
68806;SDS011;55800;54.272;18.558;2023-07-29T16:15:50;8.07;;;5.55;;
68806;SDS011;55800;54.272;18.558;2023-07-29T16:18:38;3.25;;;2.25;;
68806;SDS011;55800;54.272;18.558;2023-07-29T16:21:25;3.80;;;2.10;;
68806;SDS011;55800;54.272;18.558;2023-07-29T16:24:11;4.93;;;1.88;;
68806;SDS011;55800;54.272;18.558;2023-07-29T16:27:00;5.25;;;1.90;;
68806;SDS011;55800;54.272;18.558;2023-07-29T16:29:48;4.47;;;2.03;;
68806;SDS011;55800;54.272;18.558;2023-07-29T16:32:35;3.85;;;1.77;;
68806;SDS011;55800;54.272;18.558;2023-07-29T16:35:21;6.47;;;1.80;;
68806;SDS011;55800;54.272;18.558;2023-07-29T16:38:08;4.03;;;2.33;;
68806;SDS011;55800;54.272;18.558;2023-07-29T16:40:55;3.70;;;2.38;;
68806;SDS011;55800;54.272;18.558;2023-07-29T16:43:42;5.38;;;2.40;;
68806;SDS011;55800;54.272;18.558;2023-07-29T16:46:30;5.72;;;2.28;;
68806;SDS011;55800;54.272;18.558;2023-07-29T16:49:17;5.85;;;1.90;;
68806;SDS011;55800;54.272;18.558;2023-07-29T16:52:04;4.90;;;2.22;;
68806;SDS011;55800;54.272;18.558;2023-07-29T16:54:52;8.40;;;2.97;;
68806;SDS011;55800;54.272;18.558;2023-07-29T16:57:38;3.42;;;2.20;;
68806;SDS011;55800;54.272;18.558;2023-07-29T17:00:25;5.32;;;2.65;;
68806;SDS011;55800;54.272;18.558;2023-07-29T17:03:13;4.97;;;2.80;;
68806;SDS011;55800;54.272;18.558;2023-07-29T17:06:02;6.72;;;2.72;;
68806;SDS011;55800;54.272;18.558;2023-07-29T17:08:49;6.07;;;2.25;;
68806;SDS011;55800;54.272;18.558;2023-07-29T17:11:36;3.30;;;2.08;;
68806;SDS011;55800;54.272;18.558;2023-07-29T17:14:22;4.75;;;1.80;;
68806;SDS011;55800;54.272;18.558;2023-07-29T17:17:09;3.88;;;2.13;;
68806;SDS011;55800;54.272;18.558;2023-07-29T17:19:57;4.78;;;2.50;;
68806;SDS011;55800;54.272;18.558;2023-07-29T17:22:44;4.05;;;1.90;;
68806;SDS011;55800;54.272;18.558;2023-07-29T17:25:32;4.15;;;2.38;;
68806;SDS011;55800;54.272;18.558;2023-07-29T17:28:19;5.63;;;2.63;;
68806;SDS011;55800;54.272;18.558;2023-07-29T17:31:07;4.60;;;1.92;;
68806;SDS011;55800;54.272;18.558;2023-07-29T17:33:54;4.32;;;2.50;;
68806;SDS011;55800;54.272;18.558;2023-07-29T17:36:43;7.07;;;2.42;;
68806;SDS011;55800;54.272;18.558;2023-07-29T17:39:36;5.95;;;2.50;;
68806;SDS011;55800;54.272;18.558;2023-07-29T17:42:25;11.75;;;2.30;;
68806;SDS011;55800;54.272;18.558;2023-07-29T17:45:12;7.82;;;2.80;;
68806;SDS011;55800;54.272;18.558;2023-07-29T17:47:59;5.82;;;2.72;;
68806;SDS011;55800;54.272;18.558;2023-07-29T17:50:45;5.03;;;2.75;;
68806;SDS011;55800;54.272;18.558;2023-07-29T17:53:36;8.93;;;3.35;;
68806;SDS011;55800;54.272;18.558;2023-07-29T17:56:29;7.22;;;2.45;;
68806;SDS011;55800;54.272;18.558;2023-07-29T17:59:27;5.75;;;3.10;;
68806;SDS011;55800;54.272;18.558;2023-07-29T18:02:14;7.68;;;3.15;;
68806;SDS011;55800;54.272;18.558;2023-07-29T18:05:01;7.63;;;3.40;;
68806;SDS011;55800;54.272;18.558;2023-07-29T18:07:48;7.50;;;2.80;;
68806;SDS011;55800;54.272;18.558;2023-07-29T18:10:40;5.80;;;3.15;;
68806;SDS011;55800;54.272;18.558;2023-07-29T18:13:27;5.45;;;3.78;;
68806;SDS011;55800;54.272;18.558;2023-07-29T18:16:16;6.53;;;3.47;;
68806;SDS011;55800;54.272;18.558;2023-07-29T18:19:04;8.98;;;3.10;;
68806;SDS011;55800;54.272;18.558;2023-07-29T18:21:54;8.57;;;3.38;;
68806;SDS011;55800;54.272;18.558;2023-07-29T18:24:45;8.90;;;3.65;;
68806;SDS011;55800;54.272;18.558;2023-07-29T18:27:37;6.50;;;3.45;;
68806;SDS011;55800;54.272;18.558;2023-07-29T18:30:26;6.25;;;3.90;;
68806;SDS011;55800;54.272;18.558;2023-07-29T18:33:13;6.03;;;3.30;;
68806;SDS011;55800;54.272;18.558;2023-07-29T18:36:04;6.15;;;3.78;;
68806;SDS011;55800;54.272;18.558;2023-07-29T18:38:55;5.20;;;3.33;;
68806;SDS011;55800;54.272;18.558;2023-07-29T18:41:48;5.38;;;3.67;;
68806;SDS011;55800;54.272;18.558;2023-07-29T18:44:36;6.07;;;3.58;;
68806;SDS011;55800;54.272;18.558;2023-07-29T18:47:23;7.97;;;3.75;;
68806;SDS011;55800;54.272;18.558;2023-07-29T18:50:12;5.35;;;3.55;;
68806;SDS011;55800;54.272;18.558;2023-07-29T18:52:59;6.85;;;4.03;;
68806;SDS011;55800;54.272;18.558;2023-07-29T18:55:48;7.25;;;4.68;;
68806;SDS011;55800;54.272;18.558;2023-07-29T18:58:40;6.70;;;4.65;;
68806;SDS011;55800;54.272;18.558;2023-07-29T19:01:37;9.25;;;4.07;;
68806;SDS011;55800;54.272;18.558;2023-07-29T19:04:38;5.43;;;3.45;;
68806;SDS011;55800;54.272;18.558;2023-07-29T19:07:38;9.30;;;3.92;;
68806;SDS011;55800;54.272;18.558;2023-07-29T19:10:44;6.10;;;3.20;;
68806;SDS011;55800;54.272;18.558;2023-07-29T19:13:35;5.80;;;3.55;;
68806;SDS011;55800;54.272;18.558;2023-07-29T19:16:42;8.57;;;4.05;;
68806;SDS011;55800;54.272;18.558;2023-07-29T19:19:59;6.25;;;4.28;;
68806;SDS011;55800;54.272;18.558;2023-07-29T19:23:01;8.43;;;4.10;;
68806;SDS011;55800;54.272;18.558;2023-07-29T19:25:58;8.32;;;4.68;;
68806;SDS011;55800;54.272;18.558;2023-07-29T19:28:55;7.07;;;4.10;;
68806;SDS011;55800;54.272;18.558;2023-07-29T19:31:57;7.90;;;4.30;;
68806;SDS011;55800;54.272;18.558;2023-07-29T19:34:56;5.95;;;3.67;;
68806;SDS011;55800;54.272;18.558;2023-07-29T19:37:58;4.80;;;2.80;;
68806;SDS011;55800;54.272;18.558;2023-07-29T19:40:59;4.28;;;2.78;;
68806;SDS011;55800;54.272;18.558;2023-07-29T19:43:58;4.65;;;3.00;;
68806;SDS011;55800;54.272;18.558;2023-07-29T19:46:56;6.40;;;3.58;;
68806;SDS011;55800;54.272;18.558;2023-07-29T19:49:50;6.28;;;3.05;;
68806;SDS011;55800;54.272;18.558;2023-07-29T19:52:47;5.63;;;2.90;;
68806;SDS011;55800;54.272;18.558;2023-07-29T19:55:44;6.88;;;2.90;;
68806;SDS011;55800;54.272;18.558;2023-07-29T19:58:40;4.80;;;3.08;;
68806;SDS011;55800;54.272;18.558;2023-07-29T20:01:33;7.63;;;3.05;;
68806;SDS011;55800;54.272;18.558;2023-07-29T20:04:34;4.07;;;2.65;;
68806;SDS011;55800;54.272;18.558;2023-07-29T20:07:33;4.95;;;3.15;;
68806;SDS011;55800;54.272;18.558;2023-07-29T20:10:43;7.55;;;3.25;;
68806;SDS011;55800;54.272;18.558;2023-07-29T20:13:41;4.90;;;3.17;;
68806;SDS011;55800;54.272;18.558;2023-07-29T20:16:48;4.75;;;3.45;;
68806;SDS011;55800;54.272;18.558;2023-07-29T20:19:55;5.95;;;3.40;;
68806;SDS011;55800;54.272;18.558;2023-07-29T20:22:51;4.63;;;2.83;;
68806;SDS011;55800;54.272;18.558;2023-07-29T20:25:46;4.28;;;3.15;;
68806;SDS011;55800;54.272;18.558;2023-07-29T20:29:07;7.45;;;3.45;;
68806;SDS011;55800;54.272;18.558;2023-07-29T20:32:16;4.70;;;3.33;;
68806;SDS011;55800;54.272;18.558;2023-07-29T20:35:20;5.20;;;3.30;;
68806;SDS011;55800;54.272;18.558;2023-07-29T20:38:18;5.70;;;2.88;;
68806;SDS011;55800;54.272;18.558;2023-07-29T20:41:19;6.07;;;3.00;;
68806;SDS011;55800;54.272;18.558;2023-07-29T20:44:28;4.45;;;2.92;;
68806;SDS011;55800;54.272;18.558;2023-07-29T20:47:23;5.10;;;3.10;;
68806;SDS011;55800;54.272;18.558;2023-07-29T20:50:23;6.50;;;2.72;;
68806;SDS011;55800;54.272;18.558;2023-07-29T20:53:16;5.03;;;3.33;;
68806;SDS011;55800;54.272;18.558;2023-07-29T20:56:12;4.43;;;2.92;;
68806;SDS011;55800;54.272;18.558;2023-07-29T20:59:01;5.03;;;3.20;;
68806;SDS011;55800;54.272;18.558;2023-07-29T21:01:55;5.65;;;2.80;;
68806;SDS011;55800;54.272;18.558;2023-07-29T21:04:46;4.55;;;2.83;;
68806;SDS011;55800;54.272;18.558;2023-07-29T21:07:47;6.63;;;2.85;;
68806;SDS011;55800;54.272;18.558;2023-07-29T21:10:38;5.22;;;3.72;;
68806;SDS011;55800;54.272;18.558;2023-07-29T21:13:25;5.38;;;2.60;;
68806;SDS011;55800;54.272;18.558;2023-07-29T21:16:32;4.90;;;2.83;;
68806;SDS011;55800;54.272;18.558;2023-07-29T21:19:21;6.65;;;3.20;;
68806;SDS011;55800;54.272;18.558;2023-07-29T21:22:20;6.13;;;3.45;;
68806;SDS011;55800;54.272;18.558;2023-07-29T21:25:13;4.63;;;3.15;;
68806;SDS011;55800;54.272;18.558;2023-07-29T21:28:01;4.63;;;2.92;;
68806;SDS011;55800;54.272;18.558;2023-07-29T21:30:51;6.18;;;3.08;;
68806;SDS011;55800;54.272;18.558;2023-07-29T21:33:46;6.53;;;3.22;;
68806;SDS011;55800;54.272;18.558;2023-07-29T21:36:39;6.32;;;3.78;;
68806;SDS011;55800;54.272;18.558;2023-07-29T21:39:35;6.13;;;3.45;;
68806;SDS011;55800;54.272;18.558;2023-07-29T21:42:26;6.22;;;3.00;;
68806;SDS011;55800;54.272;18.558;2023-07-29T21:45:13;6.93;;;3.45;;
68806;SDS011;55800;54.272;18.558;2023-07-29T21:48:00;5.90;;;4.07;;
68806;SDS011;55800;54.272;18.558;2023-07-29T21:50:47;10.40;;;3.55;;
68806;SDS011;55800;54.272;18.558;2023-07-29T21:53:46;4.60;;;2.78;;
68806;SDS011;55800;54.272;18.558;2023-07-29T21:56:32;8.77;;;3.75;;
68806;SDS011;55800;54.272;18.558;2023-07-29T21:59:20;5.72;;;3.47;;
68806;SDS011;55800;54.272;18.558;2023-07-29T22:02:07;6.30;;;3.33;;
68806;SDS011;55800;54.272;18.558;2023-07-29T22:04:55;6.07;;;3.22;;
68806;SDS011;55800;54.272;18.558;2023-07-29T22:07:42;5.30;;;2.75;;
68806;SDS011;55800;54.272;18.558;2023-07-29T22:10:28;5.05;;;3.33;;
68806;SDS011;55800;54.272;18.558;2023-07-29T22:13:15;8.02;;;2.97;;
68806;SDS011;55800;54.272;18.558;2023-07-29T22:16:03;5.28;;;2.80;;
68806;SDS011;55800;54.272;18.558;2023-07-29T22:18:50;10.98;;;3.45;;
68806;SDS011;55800;54.272;18.558;2023-07-29T22:21:36;7.88;;;2.70;;
68806;SDS011;55800;54.272;18.558;2023-07-29T22:24:23;5.57;;;2.47;;
68806;SDS011;55800;54.272;18.558;2023-07-29T22:27:10;7.35;;;2.92;;
68806;SDS011;55800;54.272;18.558;2023-07-29T22:29:57;7.30;;;2.70;;
68806;SDS011;55800;54.272;18.558;2023-07-29T22:32:45;6.63;;;3.22;;
68806;SDS011;55800;54.272;18.558;2023-07-29T22:35:32;5.68;;;2.90;;
68806;SDS011;55800;54.272;18.558;2023-07-29T22:38:19;7.88;;;2.90;;
68806;SDS011;55800;54.272;18.558;2023-07-29T22:41:06;4.60;;;2.63;;
68806;SDS011;55800;54.272;18.558;2023-07-29T22:43:52;8.43;;;3.03;;
68806;SDS011;55800;54.272;18.558;2023-07-29T22:46:39;7.03;;;2.63;;
68806;SDS011;55800;54.272;18.558;2023-07-29T22:49:27;11.60;;;2.90;;
68806;SDS011;55800;54.272;18.558;2023-07-29T22:52:15;7.57;;;3.05;;
68806;SDS011;55800;54.272;18.558;2023-07-29T22:54:44;8.25;;;3.47;;
68806;SDS011;55800;54.272;18.558;2023-07-29T22:57:13;9.38;;;3.17;;
68806;SDS011;55800;54.272;18.558;2023-07-29T22:59:43;7.10;;;2.55;;
68806;SDS011;55800;54.272;18.558;2023-07-29T23:02:12;7.57;;;4.15;;
68806;SDS011;55800;54.272;18.558;2023-07-29T23:04:43;8.25;;;3.55;;
68806;SDS011;55800;54.272;18.558;2023-07-29T23:07:12;12.80;;;4.40;;
68806;SDS011;55800;54.272;18.558;2023-07-29T23:09:41;8.48;;;3.53;;
68806;SDS011;55800;54.272;18.558;2023-07-29T23:12:11;6.95;;;3.10;;
68806;SDS011;55800;54.272;18.558;2023-07-29T23:14:40;4.60;;;2.80;;
68806;SDS011;55800;54.272;18.558;2023-07-29T23:17:10;9.85;;;3.42;;
68806;SDS011;55800;54.272;18.558;2023-07-29T23:19:40;6.68;;;2.55;;
68806;SDS011;55800;54.272;18.558;2023-07-29T23:22:10;10.80;;;3.20;;
68806;SDS011;55800;54.272;18.558;2023-07-29T23:24:40;10.35;;;4.00;;
68806;SDS011;55800;54.272;18.558;2023-07-29T23:27:09;5.63;;;3.20;;
68806;SDS011;55800;54.272;18.558;2023-07-29T23:29:37;8.13;;;2.90;;
68806;SDS011;55800;54.272;18.558;2023-07-29T23:32:07;7.00;;;2.58;;
68806;SDS011;55800;54.272;18.558;2023-07-29T23:34:36;5.30;;;2.53;;
68806;SDS011;55800;54.272;18.558;2023-07-29T23:37:06;5.25;;;2.38;;
68806;SDS011;55800;54.272;18.558;2023-07-29T23:39:36;6.03;;;2.67;;
68806;SDS011;55800;54.272;18.558;2023-07-29T23:42:06;3.75;;;2.42;;
68806;SDS011;55800;54.272;18.558;2023-07-29T23:44:35;3.30;;;2.17;;
68806;SDS011;55800;54.272;18.558;2023-07-29T23:47:05;5.38;;;2.90;;
68806;SDS011;55800;54.272;18.558;2023-07-29T23:49:34;3.33;;;2.38;;
68806;SDS011;55800;54.272;18.558;2023-07-29T23:52:04;4.80;;;2.55;;
68806;SDS011;55800;54.272;18.558;2023-07-29T23:54:33;2.55;;;1.92;;
68806;SDS011;55800;54.272;18.558;2023-07-29T23:57:05;3.88;;;2.22;;
68806;SDS011;55800;54.272;18.558;2023-07-29T23:59:34;3.38;;;2.30;;
